Welcome to La Porte Aviation Services!

An aviation adventure awaits

Current Weather Conditions

Available data for KPPO from the past 2 hours
LA PORTE, IN
Metar
KPPO 201735Z AUTO 14009KT 10SM CLR 20/03 A3045 RMK AO2 T02040028

17:35 UTC

Wind: 140° 9kt

Visibility: 10 SM

Sky:

Temp: 20 deg C / 68 deg F

Dewpoint: 3 deg C / 37.4 deg F

Pressure: 30.45 inHg

Connect with us on Facebook!

Facebook By Weblizar Powered By Weblizar